LiveATC.Net - Listen to live air traffic control over the Internet! Contact LiveATC.net for advertising information

Find LiveATC Audio Streams


Airport/ARTCC Code

Frequency
(e.g., 124.400, 128.75)
Site-wide search

Browse LiveATC Feeds
LiveATC Coverage Map
Top 50 LiveATC Feeds
Bad Weather Areas

LiveATC FAQ
Offer a LiveATC Feed
Contact LiveATC.net
Press Inquiries

LiveATC on iPhone
LiveATC on Android

LiveATC Mobile
(Mobile browser)

ATC Audio Archives
Interesting Recordings

LiveATC Forums

Home Page
About LiveATC.net
Make a Donation
LiveATC Bookstore

Terms of Use
Privacy Policy

ATC/Radar Sites
U.S. ARTCC Freqs
Canadian Air Freqs

AIRMETs/SIGMETs

FAA Airport Status
Nat'l Airspace Status
Arrival Demand Charts


Server Software By:
Icecast.org
Liquidsoap

U.S. Feeds: Class B Airports | Class C Airports | Class D/Other Airports | ARTCC (Centers)
International Feeds: Canada | Europe | Oceania | Asia | South America | North & Central America | Africa
Misc Feeds: HF Feeds
All Feeds: All Feeds
Search by ICAO/IATA airport code:   (e.g., kbos, kjfk, lax, eham, etc.)


Currently Available Live Feeds: 1171
Status Updated: Tue Jul 07 2015 08:53:01 UTC


NOTICE

Unauthorized use prohibited. See LiveATC.net Terms of Service

ATC Facility
ATC Radio Frequencies

North and Central America Airport Feeds

 

BGGH AFIS (Archives)
Nuuk, Greenland

Feed Status: UP

Click on your favorite media player to listen:
Listen with WinAmp to BGGH AFIS  Listen with iTunes to BGGH AFIS  Click here to listen if using Real Player  Click here to listen if using Windows Media Player

Or simply listen in your browser:

Listen right in your browser(in browser, requires Flash)

BGGH 070750Z AUTO 00000KT 9999NDV NCD 11/04 Q1021


Listeners: 2 out of 3640 total

Nuuk AFIS: 119.100

MMAN Tower (Archives)
Monterrey, Mexico

Feed Status: UP

Click on your favorite media player to listen:
Listen with WinAmp to MMAN Tower  Listen with iTunes to MMAN Tower  Click here to listen if using Real Player  Click here to listen if using Windows Media Player

Or simply listen in your browser:

Listen right in your browser(in browser, requires Flash)

MMAN 070440Z 09004KT 5SM SKC 26/18 A2997 RMK HZY

MMAN Flight Activity (Flightaware)

Listeners: 2 out of 3640 total

Monterrey Tower: 118.600

MMGL Twr/App (Archives)
Guadalajara, Mexico

Feed Status: UP

Click on your favorite media player to listen:
Listen with WinAmp to MMGL Twr/App  Listen with iTunes to MMGL Twr/App  Click here to listen if using Real Player  Click here to listen if using Windows Media Player

Or simply listen in your browser:

Listen right in your browser(in browser, requires Flash)

MMGL 070745Z 19003KT 8SM BKN030 BKN090 19/16 A3021 RMK 8/570

MMGL Flight Activity (Flightaware)

Listeners: 5 out of 3640 total

Guadalajara Approach: 120.800
Guadalajara Tower: 118.100

MMJA AFIS/App/Center (Archives)
Veracruz, Mexico

Feed Status: UP

Click on your favorite media player to listen:
Listen with WinAmp to MMJA AFIS/App/Center  Listen with iTunes to MMJA AFIS/App/Center  Click here to listen if using Real Player  Click here to listen if using Windows Media Player

Or simply listen in your browser:

Listen right in your browser(in browser, requires Flash)

MMJA Flight Activity (Flightaware)

Listeners: 2 out of 3640 total

Lencero AFIS: 123.300
Mexico Center: 126.600
Mexico Center: 128.000
Mexico Center: 128.500
Mexico Center: 126.300
Veracruz Approach: 120.400

MMJC CTAF/Info
Atizapan de Zaragoza, Mexico

Feed Status: DOWN
Offline since: 2015-02-20 01:44:03 UTC

Atizapan de Zaragoza CTAF/Info: 118.400

MMMD Tower/Approach (Archives)
Merida, Mexico

Feed Status: UP

Click on your favorite media player to listen:
Listen with WinAmp to MMMD Tower/Approach   Listen with iTunes to MMMD Tower/Approach   Click here to listen if using Real Player  Click here to listen if using Windows Media Player

Or simply listen in your browser:

Listen right in your browser(in browser, requires Flash)

MMMD 070745Z 12005KT 7SM SKC 24/23 A3000

MMMD Flight Activity (Flightaware)

Listeners: 2 out of 3640 total

Merida Approach: 121.200
Merida Tower: 118.300

MMMX Approach (Archives)
Mexico City, Mexico

Feed Status: UP

Click on your favorite media player to listen:
Listen with WinAmp to MMMX Approach  Listen with iTunes to MMMX Approach  Click here to listen if using Real Player  Click here to listen if using Windows Media Player

Or simply listen in your browser:

Listen right in your browser(in browser, requires Flash)

MMMX 070754Z 00000KT 7SM FEW080 15/10 A3037 NOSIG RMK 8/030 HZY

MMMX Flight Activity (Flightaware)

Listeners: 7 out of 3640 total

Mexico City Approach: 121.200

MMMX Dep (Archives)
Mexico City, Mexico

Feed Status: UP

Click on your favorite media player to listen:
Listen with WinAmp to MMMX Dep  Listen with iTunes to MMMX Dep  Click here to listen if using Real Player  Click here to listen if using Windows Media Player

Or simply listen in your browser:

Listen right in your browser(in browser, requires Flash)

MMMX 070754Z 00000KT 7SM FEW080 15/10 A3037 NOSIG RMK 8/030 HZY

MMMX Flight Activity (Flightaware)

Listeners: 2 out of 3640 total

Mexico City Departure (East): 120.500
Mexico City Departure (West): 129.100

MMMY Tower/Approach (Archives)
Monterrey, Mexico

Feed Status: UP

Click on your favorite media player to listen:
Listen with WinAmp to MMMY Tower/Approach  Listen with iTunes to MMMY Tower/Approach  Click here to listen if using Real Player  Click here to listen if using Windows Media Player

Or simply listen in your browser:

Listen right in your browser(in browser, requires Flash)

MMMY 070741Z 08006KT 7SM OVC017 25/21 A2995 RMK 8/5//

MMMY Flight Activity (Flightaware)

Listeners: 2 out of 3640 total

Monterrey Approach/Departure: 119.750
Monterrey Tower: 118.100

MMPB Tower (Archives)
Puebla, Mexico

Feed Status: UP

Click on your favorite media player to listen:
Listen with WinAmp to MMPB Tower  Listen with iTunes to MMPB Tower  Click here to listen if using Real Player  Click here to listen if using Windows Media Player

Or simply listen in your browser:

Listen right in your browser(in browser, requires Flash)

MMPB 070541Z 16004KT 8SM SCT015 BKN080 BKN220 14/11 A3041 RMK 8/572 HZY

MMPB Flight Activity (Flightaware)

Listeners: 2 out of 3640 total

Puebla Tower: 118.200

MMTC Torreon, Mexico (Archives)
Torreon, Mexico

Feed Status: UP

Click on your favorite media player to listen:
Listen with WinAmp to MMTC Torreon, Mexico  Listen with iTunes to MMTC Torreon, Mexico  Click here to listen if using Real Player  Click here to listen if using Windows Media Player

Or simply listen in your browser:

Listen right in your browser(in browser, requires Flash)

MMTC 070348Z 12004KT 10SM SCT020CB SCT110 30/16 A3004 RMK 8/960 CB & LTGIC VC 3 QUAD

MMTC Flight Activity (Flightaware)

Listeners: 2 out of 3640 total

Mazatlan Center: 124.200
Mazatlan Center: 124.400
Mazatlan Center: 128.000
Mexico Center: 123.900
Monterrey Center: 125.600
Monterrey Center: 125.425
Monterrey Center: 127.400
Torreon Approach: 119.500
Torreon Tower: 118.500

MMUN Twr/App/Center (Archives)
Cancun, Mexico

Feed Status: UP

Click on your favorite media player to listen:
Listen with WinAmp to MMUN Twr/App/Center  Listen with iTunes to MMUN Twr/App/Center  Click here to listen if using Real Player  Click here to listen if using Windows Media Player

Or simply listen in your browser:

Listen right in your browser(in browser, requires Flash)

MMMD 070745Z 12005KT 7SM SKC 24/23 A3000

MMMD Flight Activity (Flightaware)

Listeners: 2 out of 3640 total

Cancun Approach: 123.400
Cancun Departure: 119.800
Cancun Tower (North): 118.100
Cancun Tower (South): 118.600
Merida Center: 125.200
Merida Center: 128.200

TBPB Gnd/Twr/Radar/Center
Bridgetown, Barbados

Feed Status: DOWN
Offline since: 2015-06-20 13:49:03 UTC
TBPB 070800Z 07018KT 9999 SCT020 BKN280 27/23 Q1014 NOSIG

Adams Approach/Departure: 129.350
Adams Approach/Departure: 128.850
Adams Ground: 121.900
Adams Tower: 118.700
Piarco Center: 123.700

TNCM Tower/App (Archives)
Philipsburg, Saint Martin

Feed Status: UP

Click on your favorite media player to listen:
Listen with WinAmp to TNCM Tower/App  Listen with iTunes to TNCM Tower/App  Click here to listen if using Real Player  Click here to listen if using Windows Media Player

Or simply listen in your browser:

Listen right in your browser(in browser, requires Flash)

TNCM 070800Z 08010KT 060V130 9999 SCT018 SCT035 27/22 Q1016 A3002

TNCM Flight Activity (Flightaware)

Listeners: 2 out of 3640 total

Juliana Approach (only when busy): 128.950
Juliana Tower (TNCM): 118.700

Bermuda Tower/Ground (Archives)
Hamilton, Bermuda

Feed Status: UP

Click on your favorite media player to listen:
Listen with WinAmp to Bermuda Tower/Ground  Listen with iTunes to Bermuda Tower/Ground  Click here to listen if using Real Player  Click here to listen if using Windows Media Player

Or simply listen in your browser:

Listen right in your browser(in browser, requires Flash)

TXKF 070755Z 35003KT 9999 FEW018TCU FEW075 SCT300 27/22 Q1023 RMK TCU SW 

TXKF Flight Activity (Flightaware)

Listeners: 2 out of 3640 total

Bermuda CTAF: 122.800
Bermuda Ground/Clearance: 124.500
Bermuda Tower: 118.100

ZNY Bermuda Sector (Archives)
Hamilton, Bermuda

Feed Status: UP

Click on your favorite media player to listen:
Listen with WinAmp to ZNY Bermuda Sector  Listen with iTunes to ZNY Bermuda Sector  Click here to listen if using Real Player  Click here to listen if using Windows Media Player

Or simply listen in your browser:

Listen right in your browser(in browser, requires Flash)

TXKF 070755Z 35003KT 9999 FEW018TCU FEW075 SCT300 27/22 Q1023 RMK TCU SW 

TXKF Flight Activity (Flightaware)

Listeners: 2 out of 3640 total

New York Approach (Bermuda Sector) : 119.100
New York Center (Bermuda Sector): 128.500

MGGT Gnd/Twr (Archives)
Guatemala City, Guatemala

Feed Status: UP

Click on your favorite media player to listen:
Listen with WinAmp to MGGT Gnd/Twr  Listen with iTunes to MGGT Gnd/Twr  Click here to listen if using Real Player  Click here to listen if using Windows Media Player

Or simply listen in your browser:

Listen right in your browser(in browser, requires Flash)

MGGT 070800Z 01008KT 9999 SCT016 SCT080 18/17 Q1026 A3030

MGGT Flight Activity (Flightaware)

Listeners: 2 out of 3640 total

Guatemala City Ground: 121.900
Guatemala City Tower: 118.100

MGGT Ground (Archives)
Guatemala City, Guatemala

Feed Status: UP

Click on your favorite media player to listen:
Listen with WinAmp to MGGT Ground  Listen with iTunes to MGGT Ground  Click here to listen if using Real Player  Click here to listen if using Windows Media Player

Or simply listen in your browser:

Listen right in your browser(in browser, requires Flash)

MGGT 070800Z 01008KT 9999 SCT016 SCT080 18/17 Q1026 A3030

MGGT Flight Activity (Flightaware)

Listeners: 3 out of 3640 total

Guatemala City Ground: 121.900

MGGT Tower (Archives)
Guatemala City, Guatemala

Feed Status: UP

Click on your favorite media player to listen:
Listen with WinAmp to MGGT Tower  Listen with iTunes to MGGT Tower  Click here to listen if using Real Player  Click here to listen if using Windows Media Player

Or simply listen in your browser:

Listen right in your browser(in browser, requires Flash)

MGGT 070800Z 01008KT 9999 SCT016 SCT080 18/17 Q1026 A3030

MGGT Flight Activity (Flightaware)

Listeners: 3 out of 3640 total

Guatemala City Tower: 118.100

MHTG Gnd/Twr/App/Ctr/Ops (Archives)
Tegucigalpa, Honduras

Feed Status: UP

Click on your favorite media player to listen:
Listen with WinAmp to MHTG Gnd/Twr/App/Ctr/Ops  Listen with iTunes to MHTG Gnd/Twr/App/Ctr/Ops  Click here to listen if using Real Player  Click here to listen if using Windows Media Player

Or simply listen in your browser:

Listen right in your browser(in browser, requires Flash)

MHTG 070800Z 36004KT 9999 SCT026 20/17 Q1021 A3015 NOSIG

MHTG Flight Activity (Flightaware)

Listeners: 2 out of 3640 total

American Airlines Ops: 130.700
ARINC ACARS: 131.550
Cenamer Center: 123.900
Cenamer Center: 124.300
Cenamer Center: 124.100
CMP Ops: 129.925
Continental Airlines Ops: 129.925
FAH Ground: 122.900
Taca Ops: 131.300
Taca Ops Sal: 130.300
Tecnologias Unidas: 133.000
Tegucigalpa RDO: 126.700
Toncontin Approach: 119.100
Toncontin Ground: 121.900
Toncontin Tower: 118.700

MPTO Twr/App/Control
Panama City, Panama

Feed Status: DOWN
Offline since: 2015-06-17 13:24:03 UTC
MPTO 070800Z 04008KT 7000 -RA SCT018CB BKN080 25/24 Q1009 RWY WET NOSIG

Panama Approach: 121.200
Panama Control: 123.300
Panama Control: 133.300
Panama Departure: 119.700
Panama Tower: 118.100

MROC Del/Gnd/Twr/App/Center/Misc (Archives)
San Jose, Costa Rica

Feed Status: UP

Click on your favorite media player to listen:
Listen with WinAmp to MROC Del/Gnd/Twr/App/Center/Misc  Listen with iTunes to MROC Del/Gnd/Twr/App/Center/Misc  Click here to listen if using Real Player  Click here to listen if using Windows Media Player

Or simply listen in your browser:

Listen right in your browser(in browser, requires Flash)

MROC 070800Z 02003KT 9999 RA FEW030 BKN100 20/19 A3002 NOSIG

MROC Flight Activity (Flightaware)

Listeners: 5 out of 3640 total

ADS: 131.000
Aerodespacho Ops: 135.000
Central American Center (CENAMER Control): 124.100
Coco Center (Control over CR Airspace): 119.600
Coco Clearance Delivery: 121.300
Coco Ground: 121.900
Coco Terminal Control: 120.500
Coco Tower: 118.600
Coco UNICOM: 126.800
SYQ Ground: 121.700
SYQ Tower: 118.300

MSSS Tower
San Salvador, El Salvador

Feed Status: DOWN
Offline since: 2015-07-07 06:51:02 UTC
MSSS 070350Z 00000KT CAVOK 24/22 Q1016 A3002

El Salvador Approach: 119.900
Ilopango Approach: 119.500
Ilopango Ground: 121.900
Ilopango Tower: 118.300

Please make a donation to help us keep growing!